Time;durP1;ratioP1;P1;durP2;ratioP2;P2;SDS_P1;SDS_P2;PMS_P1;PMS_P2;Temp;Humidity;BMP_temperature;BMP_pressure;BME280_temperature;BME280_humidity;BME280_pressure;Samples;Min_cycle;Max_cycle;Signal;HPM_P1;HPM_P2
2022/05/03 00:01:22;;;;;;;1.50;0.90;;;16.10;52.90;;;;;;4934049;29;20452;-76
2022/05/03 00:03:48;;;;;;;1.20;1.10;;;16.10;53.00;;;;;;4957639;28;20061;-75
2022/05/03 00:06:26;;;;;;;1.30;1.20;;;16.00;53.10;;;;;;4956314;29;20020;-77
2022/05/03 00:09:47;;;;;;;1.20;1.10;;;16.00;53.10;;;;;;4956438;29;20039;-76
2022/05/03 00:12:18;;;;;;;1.13;1.00;;;15.90;53.30;;;;;;4932692;29;20087;-76
2022/05/03 00:14:49;;;;;;;1.40;1.30;;;15.80;53.20;;;;;;4940446;29;20031;-77
2022/05/03 00:17:18;;;;;;;0.93;0.93;;;15.80;53.20;;;;;;4940126;29;20054;-76
2022/05/03 00:19:45;;;;;;;1.05;0.95;;;15.80;53.30;;;;;;4956772;29;20094;-76
2022/05/03 00:22:15;;;;;;;1.17;1.08;;;15.80;53.30;;;;;;4956395;29;20122;-77
2022/05/03 00:24:42;;;;;;;1.40;1.10;;;15.70;53.30;;;;;;4940124;29;20380;-80
2022/05/03 00:27:08;;;;;;;1.15;1.05;;;15.70;53.30;;;;;;4940852;29;20059;-77
2022/05/03 00:29:34;;;;;;;0.90;0.90;;;15.70;53.40;;;;;;4940064;29;20049;-77
2022/05/03 00:32:02;;;;;;;1.42;1.10;;;15.60;53.40;;;;;;4955745;29;20106;-76
2022/05/03 00:34:33;;;;;;;1.25;1.15;;;15.60;53.40;;;;;;4955933;29;20123;-76
2022/05/03 00:37:00;;;;;;;1.13;1.02;;;15.50;53.40;;;;;;4956232;29;20467;-76
2022/05/03 00:39:26;;;;;;;1.10;1.00;;;15.50;53.40;;;;;;4956416;29;20031;-77
2022/05/03 00:42:16;;;;;;;2.25;1.38;;;15.50;53.40;;;;;;4955832;29;20035;-76
2022/05/03 00:45:11;;;;;;;1.55;1.10;;;15.40;53.40;;;;;;4957893;29;20039;-78
2022/05/03 00:47:50;;;;;;;1.15;1.02;;;15.40;53.50;;;;;;4933368;29;20046;-76
2022/05/03 00:50:37;;;;;;;1.20;1.10;;;15.40;53.50;;;;;;4956305;29;20031;-77
2022/05/03 00:53:33;;;;;;;1.25;1.15;;;15.30;53.60;;;;;;4940048;29;20046;-76
2022/05/03 00:56:17;;;;;;;2.05;1.10;;;15.30;53.70;;;;;;4958134;28;20059;-76
2022/05/03 00:58:55;;;;;;;1.25;1.15;;;15.20;53.60;;;;;;4941071;29;20039;-80
2022/05/03 01:01:32;;;;;;;1.33;1.08;;;15.20;53.60;;;;;;4940697;29;20039;-76
2022/05/03 01:04:22;;;;;;;1.85;1.30;;;15.20;53.70;;;;;;4955933;28;20106;-76
2022/05/03 01:06:56;;;;;;;1.10;1.00;;;15.20;53.80;;;;;;4955293;29;20368;-75
2022/05/03 01:09:37;;;;;;;1.10;1.00;;;15.10;53.70;;;;;;4940121;29;20035;-76
2022/05/03 01:12:17;;;;;;;1.20;1.10;;;15.10;53.80;;;;;;4939605;29;20035;-76
2022/05/03 01:15:06;;;;;;;2.15;1.30;;;15.00;53.70;;;;;;4940180;29;20472;-76
2022/05/03 01:17:35;;;;;;;1.25;1.13;;;15.00;53.80;;;;;;4955142;29;20384;-77
2022/05/03 01:20:09;;;;;;;1.35;1.25;;;14.90;53.70;;;;;;4955070;29;20142;-76
2022/05/03 01:23:12;;;;;;;1.55;1.23;;;14.90;53.80;;;;;;4938900;29;20041;-76
2022/05/03 01:26:10;;;;;;;1.10;1.00;;;14.90;53.80;;;;;;4955069;29;20086;-77
2022/05/03 01:29:06;;;;;;;1.40;1.30;;;14.80;53.80;;;;;;4949935;29;20043;-77
2022/05/03 01:31:32;;;;;;;1.60;1.30;;;14.80;53.90;;;;;;4939289;29;20483;-77
2022/05/03 01:34:02;;;;;;;1.65;1.10;;;14.70;53.70;;;;;;4956069;28;20046;-76
2022/05/03 01:36:59;;;;;;;1.38;1.27;;;14.70;53.80;;;;;;4938949;29;20122;-76
2022/05/03 01:39:53;;;;;;;1.52;1.20;;;14.70;53.90;;;;;;4931554;28;20047;-76
2022/05/03 01:42:43;;;;;;;1.63;1.30;;;14.60;53.90;;;;;;4955618;29;20460;-77
2022/05/03 01:45:11;;;;;;;1.20;1.10;;;14.60;54.00;;;;;;4954742;29;20035;-77
2022/05/03 01:48:15;;;;;;;1.40;1.30;;;14.50;53.80;;;;;;4954524;29;20031;-77
2022/05/03 01:51:00;;;;;;;1.30;1.20;;;14.50;54.00;;;;;;4955347;29;20031;-77
2022/05/03 01:53:37;;;;;;;1.73;1.42;;;14.50;54.00;;;;;;4939356;29;20035;-78
2022/05/03 01:56:37;;;;;;;1.95;1.30;;;14.40;54.00;;;;;;4955745;28;20073;-76
2022/05/03 01:59:45;;;;;;;1.55;1.30;;;14.40;54.10;;;;;;4955389;29;20043;-77
2022/05/03 02:02:35;;;;;;;1.40;1.30;;;14.40;54.10;;;;;;4955116;29;20090;-77
2022/05/03 02:05:18;;;;;;;1.40;1.30;;;14.30;54.10;;;;;;4956142;28;20034;-77
2022/05/03 02:07:57;;;;;;;1.83;1.48;;;14.30;54.10;;;;;;4954386;29;20039;-77
2022/05/03 02:10:50;;;;;;;2.65;1.45;;;14.30;54.20;;;;;;4938321;29;20035;-77
2022/05/03 02:13:19;;;;;;;1.58;1.10;;;14.20;54.20;;;;;;4955034;29;20140;-77
2022/05/03 02:15:50;;;;;;;1.60;1.40;;;14.20;54.10;;;;;;4954281;28;20028;-79
2022/05/03 02:18:24;;;;;;;1.38;1.20;;;14.10;54.10;;;;;;4954183;29;20039;-77
2022/05/03 02:21:22;;;;;;;1.55;1.30;;;14.10;54.10;;;;;;4954101;29;20035;-79
2022/05/03 02:24:03;;;;;;;1.33;1.23;;;14.10;54.30;;;;;;4953894;29;20043;-76
2022/05/03 02:26:38;;;;;;;2.13;1.42;;;14.10;54.30;;;;;;4938393;29;20050;-78
2022/05/03 02:29:10;;;;;;;2.22;1.73;;;14.00;54.20;;;;;;4938874;29;20039;-76
2022/05/03 02:31:41;;;;;;;1.58;1.42;;;14.00;54.30;;;;;;4938226;29;20038;-77
2022/05/03 02:34:38;;;;;;;2.47;1.63;;;14.00;54.30;;;;;;4954151;29;20539;-77
2022/05/03 02:37:24;;;;;;;1.70;1.30;;;13.90;54.30;;;;;;4954879;28;20480;-77
2022/05/03 02:40:08;;;;;;;2.42;1.52;;;13.90;54.40;;;;;;4954847;28;20094;-76
2022/05/03 02:42:35;;;;;;;1.90;1.45;;;13.90;54.40;;;;;;4937683;29;20031;-77
2022/05/03 02:45:04;;;;;;;2.05;1.40;;;13.80;54.30;;;;;;4954016;29;20093;-77
2022/05/03 02:47:45;;;;;;;1.60;1.50;;;13.80;54.40;;;;;;4922129;29;20074;-77
2022/05/03 02:50:19;;;;;;;1.75;1.50;;;13.80;54.50;;;;;;4953920;29;20484;-77
2022/05/03 02:53:14;;;;;;;1.60;1.50;;;13.70;54.40;;;;;;4954546;29;20079;-76
2022/05/03 02:55:54;;;;;;;1.67;1.20;;;13.70;54.50;;;;;;4934300;29;20039;-78
2022/05/03 02:58:38;;;;;;;2.33;1.58;;;13.70;54.50;;;;;;4953880;29;20115;-78
2022/05/03 03:01:49;;;;;;;2.08;1.70;;;13.60;54.50;;;;;;4954885;29;20035;-76
2022/05/03 03:04:21;;;;;;;1.92;1.70;;;13.60;54.60;;;;;;4953324;29;20046;-76
2022/05/03 03:06:51;;;;;;;1.75;1.45;;;13.60;54.60;;;;;;4954096;29;20098;-77
2022/05/03 03:09:26;;;;;;;1.83;1.65;;;13.50;54.60;;;;;;4938071;29;20043;-76
2022/05/03 03:12:21;;;;;;;2.45;1.73;;;13.50;54.70;;;;;;4938378;29;20460;-77
2022/05/03 03:14:48;;;;;;;2.35;1.65;;;13.50;54.80;;;;;;4954971;28;20031;-77
2022/05/03 03:17:22;;;;;;;1.85;1.52;;;13.40;54.70;;;;;;4921766;29;20185;-78
2022/05/03 03:20:03;;;;;;;2.17;1.60;;;13.40;54.80;;;;;;4938357;29;20050;-77
2022/05/03 03:22:34;;;;;;;2.47;1.73;;;13.40;54.90;;;;;;4953424;29;20460;-76
2022/05/03 03:25:02;;;;;;;2.22;1.58;;;13.40;54.90;;;;;;4938186;29;20518;-76
2022/05/03 03:27:31;;;;;;;2.05;1.85;;;13.30;54.80;;;;;;4954959;28;20019;-75
2022/05/03 03:29:58;;;;;;;3.42;1.85;;;13.30;54.90;;;;;;4941488;29;20031;-77
2022/05/03 03:32:26;;;;;;;2.10;1.65;;;13.30;54.90;;;;;;4957598;29;20542;-76
2022/05/03 03:34:57;;;;;;;2.38;1.83;;;13.30;54.90;;;;;;4957099;29;20035;-76
2022/05/03 03:37:25;;;;;;;2.40;1.83;;;13.20;54.90;;;;;;4957446;29;20054;-75
2022/05/03 03:39:50;;;;;;;2.72;1.83;;;13.20;54.90;;;;;;4941939;29;20483;-76
2022/05/03 03:42:16;;;;;;;3.08;2.03;;;13.20;54.90;;;;;;4941043;29;20039;-76
2022/05/03 03:44:42;;;;;;;3.40;2.17;;;13.20;55.00;;;;;;4925359;29;20114;-76
2022/05/03 03:47:09;;;;;;;2.63;1.85;;;13.20;55.00;;;;;;4925165;29;20539;-76
2022/05/03 03:49:36;;;;;;;2.47;1.88;;;13.10;55.00;;;;;;4956476;29;20046;-76
2022/05/03 03:52:07;;;;;;;2.00;1.70;;;13.10;55.10;;;;;;4957474;29;20063;-76
2022/05/03 03:54:34;;;;;;;2.00;1.65;;;13.10;55.10;;;;;;4956496;29;20038;-76
2022/05/03 03:57:03;;;;;;;3.03;2.10;;;13.00;55.10;;;;;;4956608;29;20478;-76
2022/05/03 03:59:31;;;;;;;2.65;1.90;;;13.00;55.10;;;;;;4940949;29;20563;-76
2022/05/03 04:01:58;;;;;;;2.30;1.75;;;13.00;55.10;;;;;;4956733;29;20034;-76
2022/05/03 04:04:29;;;;;;;2.05;1.65;;;13.00;55.20;;;;;;4941342;29;20046;-76
2022/05/03 04:06:55;;;;;;;2.50;1.80;;;13.00;55.20;;;;;;4957209;29;20074;-76
2022/05/03 04:09:20;;;;;;;2.47;1.80;;;12.90;55.20;;;;;;4940628;29;20084;-75
2022/05/03 04:11:48;;;;;;;2.58;1.70;;;12.90;55.20;;;;;;4956436;29;20035;-76
2022/05/03 04:14:14;;;;;;;2.78;1.65;;;12.80;55.20;;;;;;4940373;29;20034;-76
2022/05/03 04:16:41;;;;;;;2.78;2.03;;;12.80;55.60;;;;;;4940183;29;20552;-75
2022/05/03 04:19:08;;;;;;;3.03;1.95;;;12.80;55.30;;;;;;4956163;29;20039;-77
2022/05/03 04:21:34;;;;;;;2.20;1.70;;;12.80;55.30;;;;;;4957250;29;20600;-76
2022/05/03 04:24:00;;;;;;;3.22;2.10;;;12.80;55.40;;;;;;4957401;28;20105;-79
2022/05/03 04:26:26;;;;;;;2.85;2.05;;;12.70;56.00;;;;;;4956455;29;20063;-75
2022/05/03 04:29:03;;;;;;;2.70;2.00;;;12.70;55.40;;;;;;4940302;29;20031;-75
2022/05/03 04:31:31;;;;;;;3.17;1.95;;;12.70;55.50;;;;;;4940360;29;20031;-75
2022/05/03 04:33:57;;;;;;;2.40;1.80;;;12.60;55.40;;;;;;4957887;28;20047;-76
2022/05/03 04:36:25;;;;;;;3.35;2.05;;;12.60;55.40;;;;;;4956080;29;20031;-76
2022/05/03 04:38:52;;;;;;;3.83;2.20;;;12.60;55.50;;;;;;4955342;28;20067;-77
2022/05/03 04:41:20;;;;;;;3.30;1.92;;;12.60;55.50;;;;;;4940020;29;20039;-75
2022/05/03 04:43:47;;;;;;;2.63;2.08;;;12.50;55.60;;;;;;4956975;28;20055;-76
2022/05/03 04:46:12;;;;;;;3.97;2.25;;;12.50;55.60;;;;;;4955681;29;20424;-77
2022/05/03 04:48:40;;;;;;;3.15;2.22;;;12.50;55.60;;;;;;4955688;29;20036;-75
2022/05/03 04:51:16;;;;;;;3.17;2.20;;;12.50;55.70;;;;;;4939945;29;20031;-76
2022/05/03 04:53:42;;;;;;;3.22;1.95;;;12.50;55.70;;;;;;4955950;29;20043;-74
2022/05/03 04:56:14;;;;;;;3.45;2.10;;;12.50;55.70;;;;;;4939467;29;20127;-77
2022/05/03 04:58:40;;;;;;;4.10;2.30;;;12.40;55.70;;;;;;4939976;29;20039;-77
2022/05/03 05:01:06;;;;;;;3.47;2.05;;;12.40;55.80;;;;;;4939865;29;20455;-77
2022/05/03 05:03:31;;;;;;;3.30;2.05;;;12.40;55.80;;;;;;4957394;29;20082;-77
2022/05/03 05:05:57;;;;;;;3.05;2.15;;;12.40;55.80;;;;;;4955676;29;20032;-77
2022/05/03 05:08:23;;;;;;;3.15;2.20;;;12.40;55.90;;;;;;4923980;29;20038;-78
2022/05/03 05:10:48;;;;;;;3.35;2.28;;;12.30;55.80;;;;;;4923855;29;20034;-76
2022/05/03 05:13:14;;;;;;;3.08;2.17;;;12.30;55.90;;;;;;4939439;29;20429;-77
2022/05/03 05:15:40;;;;;;;3.08;2.10;;;12.30;55.90;;;;;;4924317;29;20035;-76
2022/05/03 05:18:06;;;;;;;3.00;2.22;;;12.30;55.90;;;;;;4907434;29;20443;-76
2022/05/03 05:20:34;;;;;;;3.63;2.38;;;12.30;56.00;;;;;;4908036;29;20032;-76
2022/05/03 05:22:59;;;;;;;2.63;2.05;;;12.30;56.00;;;;;;4955020;29;20035;-77
2022/05/03 05:25:25;;;;;;;3.10;2.22;;;12.30;56.00;;;;;;4923677;29;20030;-78
2022/05/03 05:27:51;;;;;;;3.33;2.10;;;12.20;56.00;;;;;;4939235;29;20133;-77
2022/05/03 05:30:17;;;;;;;3.85;2.40;;;12.20;56.10;;;;;;4939319;29;20504;-77
2022/05/03 05:32:43;;;;;;;3.33;2.10;;;12.20;56.10;;;;;;4939052;29;20682;-77
2022/05/03 05:35:09;;;;;;;3.38;2.38;;;12.20;56.10;;;;;;4939555;29;20035;-77
2022/05/03 05:37:35;;;;;;;3.13;2.22;;;12.20;56.20;;;;;;4939024;29;20479;-77
2022/05/03 05:40:00;;;;;;;3.47;2.20;;;12.20;56.20;;;;;;4939579;29;20113;-78
2022/05/03 05:42:26;;;;;;;3.35;2.40;;;12.20;56.20;;;;;;4939073;29;20046;-77
2022/05/03 05:44:52;;;;;;;2.90;2.15;;;12.20;56.30;;;;;;4954994;29;20043;-76
2022/05/03 05:47:18;;;;;;;3.45;2.13;;;12.20;56.30;;;;;;4938978;29;20396;-76
2022/05/03 05:49:44;;;;;;;3.65;2.33;;;12.10;56.30;;;;;;4955336;28;20106;-76
2022/05/03 05:54:54;;;;;;;3.05;2.13;;;12.10;56.40;;;;;;4955142;29;20395;-76
2022/05/03 05:57:20;;;;;;;3.47;2.17;;;12.20;56.40;;;;;;4938919;29;20098;-76
2022/05/03 05:59:46;;;;;;;3.15;2.10;;;12.10;56.30;;;;;;4954305;29;20033;-75
2022/05/03 06:02:12;;;;;;;3.67;2.22;;;12.10;56.40;;;;;;4938445;29;20038;-76
2022/05/03 06:04:37;;;;;;;3.45;2.22;;;12.10;56.40;;;;;;4954467;29;20032;-76
2022/05/03 06:07:03;;;;;;;3.42;1.98;;;12.10;56.40;;;;;;4954573;29;20059;-76
2022/05/03 06:09:29;;;;;;;3.97;2.25;;;12.10;56.40;;;;;;4954156;29;20059;-77
2022/05/03 06:11:55;;;;;;;3.35;2.15;;;12.10;56.40;;;;;;4954470;29;20091;-78
2022/05/03 06:14:20;;;;;;;2.90;2.10;;;12.10;56.40;;;;;;4922383;29;20039;-77
2022/05/03 06:16:54;;;;;;;2.30;1.88;;;12.10;56.40;;;;;;4954826;29;20056;-77
2022/05/03 06:19:20;;;;;;;2.47;1.80;;;12.10;56.40;;;;;;4955264;29;20035;-77
2022/05/03 06:21:46;;;;;;;2.97;2.05;;;12.10;56.40;;;;;;4954279;29;20031;-78
2022/05/03 06:24:12;;;;;;;3.03;2.00;;;12.10;56.40;;;;;;4938200;29;20499;-78
2022/05/03 06:26:38;;;;;;;2.42;1.90;;;12.10;56.40;;;;;;4922879;29;20035;-78
2022/05/03 06:29:06;;;;;;;2.95;2.00;;;12.10;56.40;;;;;;4954988;29;20506;-76
2022/05/03 06:31:36;;;;;;;2.60;1.90;;;12.20;56.40;;;;;;4955655;28;20039;-78
2022/05/03 06:34:03;;;;;;;2.10;1.65;;;12.10;56.40;;;;;;4938571;29;20039;-78
2022/05/03 06:36:29;;;;;;;2.80;2.10;;;12.20;56.40;;;;;;4955189;28;20051;-77
2022/05/03 06:38:55;;;;;;;2.65;1.90;;;12.20;56.30;;;;;;4954053;29;20118;-80
2022/05/03 06:41:20;;;;;;;2.22;1.70;;;12.20;56.30;;;;;;4938087;29;20027;-77
2022/05/03 06:43:46;;;;;;;2.58;1.77;;;12.10;56.20;;;;;;4938115;29;20562;-77
2022/05/03 06:46:12;;;;;;;2.05;1.80;;;12.20;56.20;;;;;;4923016;29;20503;-77
2022/05/03 06:48:38;;;;;;;2.83;2.10;;;12.20;56.10;;;;;;4954703;29;20471;-78
2022/05/03 06:51:05;;;;;;;2.15;1.70;;;12.20;56.10;;;;;;4955136;28;20032;-78
2022/05/03 06:53:31;;;;;;;2.22;1.65;;;12.20;56.10;;;;;;4938372;29;20455;-77
2022/05/03 06:55:57;;;;;;;2.08;1.50;;;12.20;56.00;;;;;;4954748;29;20082;-78
2022/05/03 06:58:23;;;;;;;1.90;1.45;;;12.20;56.00;;;;;;4954805;28;20082;-78
2022/05/03 07:00:48;;;;;;;2.58;1.90;;;12.20;56.00;;;;;;4922224;29;20059;-77
2022/05/03 07:03:16;;;;;;;2.53;1.58;;;12.20;56.00;;;;;;4956311;28;20041;-77
2022/05/03 07:05:42;;;;;;;2.88;1.60;;;12.30;56.00;;;;;;4941719;29;20032;-77
2022/05/03 07:08:09;;;;;;;2.10;1.70;;;12.30;56.00;;;;;;4957555;29;20514;-78
2022/05/03 07:10:35;;;;;;;2.53;1.63;;;12.30;55.90;;;;;;4958345;29;20049;-79
2022/05/03 07:13:01;;;;;;;2.10;1.60;;;12.30;55.90;;;;;;4941478;29;20048;-78
2022/05/03 07:15:27;;;;;;;1.80;1.63;;;12.30;55.90;;;;;;4957594;29;20035;-79
2022/05/03 07:23:24;;;;;;;1.58;1.48;;;12.40;56.00;;;;;;4944121;29;20035;-75
2022/05/03 07:25:50;;;;;;;1.92;1.63;;;12.40;56.00;;;;;;4942370;29;20031;-77
2022/05/03 07:28:16;;;;;;;2.30;1.70;;;12.40;56.00;;;;;;4957518;29;20039;-76
2022/05/03 07:30:42;;;;;;;1.92;1.60;;;12.40;56.10;;;;;;4957024;29;20054;-79
2022/05/03 07:33:08;;;;;;;2.20;1.70;;;12.40;56.10;;;;;;4958464;28;20035;-77
2022/05/03 07:35:34;;;;;;;2.25;1.75;;;12.50;56.10;;;;;;4909528;29;20034;-77
2022/05/03 07:38:00;;;;;;;2.20;1.70;;;12.50;56.10;;;;;;4958498;28;20042;-78
2022/05/03 07:40:26;;;;;;;3.15;1.63;;;12.50;56.20;;;;;;4956910;29;20027;-76
2022/05/03 07:42:52;;;;;;;2.25;1.77;;;12.50;56.20;;;;;;4957305;29;20067;-78
2022/05/03 07:45:18;;;;;;;2.15;1.73;;;12.50;56.10;;;;;;4940885;29;20417;-77
2022/05/03 07:47:43;;;;;;;1.88;1.65;;;12.60;56.20;;;;;;4941207;29;20047;-78
2022/05/03 07:50:09;;;;;;;2.25;1.65;;;12.60;56.20;;;;;;4941128;29;20361;-78
2022/05/03 07:52:36;;;;;;;2.17;1.80;;;12.60;56.20;;;;;;4941514;29;20039;-78
2022/05/03 07:55:03;;;;;;;1.95;1.63;;;12.70;56.20;;;;;;4941093;29;20078;-78
2022/05/03 07:57:28;;;;;;;2.58;1.80;;;12.70;56.20;;;;;;4958483;28;20043;-79
2022/05/03 07:59:54;;;;;;;2.63;1.90;;;12.70;56.20;;;;;;4956631;29;20042;-78
2022/05/03 08:02:24;;;;;;;2.97;2.00;;;12.80;56.20;;;;;;4940785;29;20495;-79
2022/05/03 08:04:52;;;;;;;2.92;2.17;;;12.80;56.20;;;;;;4956606;29;20405;-78
2022/05/03 08:07:19;;;;;;;2.00;1.67;;;12.90;56.80;;;;;;4940710;29;20038;-79
2022/05/03 08:09:46;;;;;;;3.78;1.73;;;13.00;56.10;;;;;;4940403;29;20118;-80
2022/05/03 08:12:12;;;;;;;2.65;1.92;;;13.00;56.20;;;;;;4956622;29;20082;-79
2022/05/03 08:14:38;;;;;;;2.67;2.00;;;13.10;56.10;;;;;;4957506;28;20027;-80
2022/05/03 08:17:04;;;;;;;3.85;2.22;;;13.10;56.00;;;;;;4956118;29;20392;-79
2022/05/03 08:19:31;;;;;;;2.95;2.03;;;13.20;56.00;;;;;;4941220;29;20043;-79
2022/05/03 08:21:57;;;;;;;2.88;2.00;;;13.20;55.90;;;;;;4956099;29;20443;-81
2022/05/03 08:24:26;;;;;;;2.75;2.00;;;13.40;56.00;;;;;;4957571;29;20041;-80
2022/05/03 08:26:56;;;;;;;2.55;2.05;;;13.40;55.90;;;;;;4956858;29;20031;-78
2022/05/03 08:29:22;;;;;;;3.15;2.20;;;13.50;56.00;;;;;;4940177;29;20027;-77
2022/05/03 08:31:47;;;;;;;3.20;2.20;;;13.60;55.90;;;;;;4940210;29;20043;-79
2022/05/03 08:34:13;;;;;;;4.38;2.40;;;13.70;56.00;;;;;;4940209;29;20031;-78
2022/05/03 08:36:39;;;;;;;3.55;2.15;;;13.70;55.90;;;;;;4956555;29;20082;-78
2022/05/03 08:42:02;;;;;;;3.30;2.13;;;13.90;55.90;;;;;;4929482;29;20043;-79
2022/05/03 08:44:28;;;;;;;3.58;2.33;;;14.00;55.90;;;;;;4941114;29;20040;-78
2022/05/03 08:46:56;;;;;;;3.00;2.25;;;14.10;55.90;;;;;;4939648;29;20031;-79
2022/05/03 08:49:28;;;;;;;2.58;2.05;;;14.20;56.00;;;;;;4939793;29;20046;-78
2022/05/03 08:51:54;;;;;;;3.42;2.10;;;14.20;55.90;;;;;;4939913;29;20035;-79
2022/05/03 08:54:25;;;;;;;3.35;2.13;;;14.30;55.90;;;;;;4955606;29;20058;-79
2022/05/03 08:56:51;;;;;;;4.30;2.50;;;14.40;55.90;;;;;;4940437;29;20472;-79
2022/05/03 08:59:18;;;;;;;3.25;2.22;;;14.50;55.90;;;;;;4924174;29;20054;-78
2022/05/03 09:01:52;;;;;;;3.50;2.50;;;14.60;56.00;;;;;;4940155;29;20131;-78
2022/05/03 09:04:32;;;;;;;3.17;2.30;;;14.70;56.00;;;;;;4953982;29;20051;-79
2022/05/03 09:07:36;;;;;;;3.55;2.30;;;14.80;56.00;;;;;;4955689;29;20035;-77
2022/05/03 09:10:31;;;;;;;3.25;2.38;;;14.90;56.10;;;;;;4939021;29;20134;-78
2022/05/03 09:13:18;;;;;;;3.53;2.60;;;15.00;56.00;;;;;;4940063;29;20458;-78
2022/05/03 09:15:51;;;;;;;3.75;2.35;;;15.20;56.00;;;;;;4940429;29;20551;-78
2022/05/03 09:18:26;;;;;;;3.55;2.40;;;15.30;56.10;;;;;;4923976;29;20047;-79
2022/05/03 09:26:23;;;;;;;3.58;2.40;;;15.60;56.10;;;;;;4955186;28;20035;-79
2022/05/03 09:28:52;;;;;;;4.07;2.53;;;15.70;56.20;;;;;;4939589;29;20023;-79
2022/05/03 09:31:47;;;;;;;2.80;1.95;;;15.80;56.30;;;;;;4955209;29;20046;-78
2022/05/03 09:34:26;;;;;;;2.30;2.00;;;15.90;56.40;;;;;;4939446;29;20126;-77
2022/05/03 09:37:02;;;;;;;2.67;2.00;;;16.00;56.20;;;;;;4955699;29;20113;-78
2022/05/03 09:39:33;;;;;;;3.40;2.20;;;16.10;56.30;;;;;;4939110;29;20035;-78
2022/05/03 09:42:09;;;;;;;3.17;2.33;;;16.10;56.20;;;;;;4955163;29;20131;-78
2022/05/03 09:44:36;;;;;;;3.42;2.20;;;16.20;56.20;;;;;;4938606;29;20023;-78
2022/05/03 09:47:11;;;;;;;2.90;2.38;;;16.30;56.20;;;;;;4954807;29;20118;-78
2022/05/03 09:49:40;;;;;;;2.53;2.00;;;16.30;56.20;;;;;;4954516;29;20032;-78
2022/05/03 09:52:06;;;;;;;3.03;2.17;;;16.40;56.20;;;;;;4938853;29;20388;-76
2022/05/03 09:54:49;;;;;;;3.42;2.60;;;16.50;56.20;;;;;;4938392;29;20031;-77
2022/05/03 09:57:35;;;;;;;2.80;2.20;;;16.60;56.40;;;;;;4938852;29;20479;-77
2022/05/03 10:00:06;;;;;;;3.60;2.40;;;16.60;56.30;;;;;;4938878;29;20042;-77
2022/05/03 10:02:42;;;;;;;3.85;2.38;;;16.70;56.30;;;;;;4939616;29;20098;-77
2022/05/03 10:05:11;;;;;;;2.50;2.00;;;16.70;56.30;;;;;;4938978;29;20037;-77
2022/05/03 10:07:40;;;;;;;3.08;2.22;;;16.80;56.30;;;;;;4954459;29;20023;-78
2022/05/03 10:10:14;;;;;;;2.75;2.10;;;16.90;56.30;;;;;;4954715;29;20091;-77
2022/05/03 10:12:42;;;;;;;3.22;2.38;;;16.90;56.20;;;;;;4938516;29;20034;-76
2022/05/03 10:15:09;;;;;;;2.80;2.30;;;17.00;56.20;;;;;;4938237;29;20117;-79
2022/05/03 10:20:42;;;;;;;3.33;2.28;;;17.10;56.10;;;;;;4954448;29;20194;-80
2022/05/03 10:23:23;;;;;;;2.80;2.10;;;17.20;56.10;;;;;;4954453;29;20504;-78
2022/05/03 10:25:57;;;;;;;3.38;2.55;;;17.20;56.20;;;;;;4938823;29;20263;-78
2022/05/03 10:28:25;;;;;;;3.45;2.30;;;17.30;56.20;;;;;;4938016;29;20031;-79
2022/05/03 10:31:13;;;;;;;4.28;2.40;;;17.30;56.20;;;;;;4954211;29;20039;-77
2022/05/03 10:33:44;;;;;;;3.50;2.40;;;17.40;56.30;;;;;;4938565;29;20550;-76
2022/05/03 10:36:45;;;;;;;3.55;2.50;;;17.40;56.20;;;;;;4952913;28;20067;-78
2022/05/03 10:39:30;;;;;;;3.72;2.42;;;17.50;56.30;;;;;;4938314;29;20035;-77
2022/05/03 10:42:12;;;;;;;3.35;2.40;;;17.60;56.40;;;;;;4938517;29;20107;-77
2022/05/03 10:44:45;;;;;;;3.00;2.17;;;17.70;56.50;;;;;;4938200;29;20055;-77
2022/05/03 10:47:12;;;;;;;3.53;2.40;;;17.70;56.50;;;;;;4954181;29;20066;-77
2022/05/03 10:50:12;;;;;;;4.00;2.50;;;17.80;56.60;;;;;;4955023;28;20099;-77
2022/05/03 10:52:56;;;;;;;3.60;2.53;;;17.90;56.90;;;;;;4954299;29;20034;-77
2022/05/03 10:55:23;;;;;;;3.30;2.40;;;18.00;56.80;;;;;;4954689;29;20031;-79
2022/05/03 10:58:26;;;;;;;3.53;2.45;;;18.10;56.80;;;;;;4955549;28;20097;-79
2022/05/03 11:01:04;;;;;;;4.03;2.60;;;18.10;56.90;;;;;;4955611;29;20073;-79
2022/05/03 11:03:31;;;;;;;3.88;2.45;;;18.20;56.70;;;;;;4954049;29;20126;-81
2022/05/03 11:06:19;;;;;;;2.85;2.13;;;18.30;56.60;;;;;;4938522;29;20031;-78
2022/05/03 11:08:57;;;;;;;3.35;2.35;;;18.30;56.60;;;;;;4953897;29;20032;-79
2022/05/03 11:11:46;;;;;;;3.75;2.53;;;18.40;56.40;;;;;;4937843;28;20048;-79
2022/05/03 11:14:24;;;;;;;2.95;2.35;;;18.50;56.40;;;;;;4954451;29;20035;-80
2022/05/03 11:17:04;;;;;;;3.60;2.38;;;18.60;56.40;;;;;;4953500;29;20122;-80
2022/05/03 11:19:33;;;;;;;4.28;2.70;;;18.60;56.50;;;;;;4953629;29;20464;-79
2022/05/03 11:22:20;;;;;;;3.45;2.50;;;18.70;56.50;;;;;;4937986;29;20078;-79
2022/05/03 11:24:51;;;;;;;3.80;2.35;;;18.70;56.60;;;;;;4937564;29;20353;-78
2022/05/03 11:27:18;;;;;;;3.10;2.35;;;18.80;56.60;;;;;;4949382;29;20050;-78
2022/05/03 11:29:50;;;;;;;3.85;2.60;;;18.90;56.70;;;;;;4921912;29;20035;-80
2022/05/03 11:32:27;;;;;;;3.38;2.47;;;19.00;56.90;;;;;;4937977;29;20038;-80
2022/05/03 11:35:19;;;;;;;2.88;2.20;;;19.00;57.10;;;;;;4938851;29;20039;-78
2022/05/03 11:37:55;;;;;;;3.28;2.28;;;19.10;57.20;;;;;;4914345;29;20067;-78
2022/05/03 11:40:26;;;;;;;3.20;2.30;;;19.20;57.10;;;;;;4953448;29;20038;-78
2022/05/03 11:42:53;;;;;;;3.08;2.33;;;19.30;57.10;;;;;;4937689;29;20039;-77
2022/05/03 11:45:20;;;;;;;3.55;2.42;;;19.40;56.90;;;;;;4937445;29;20031;-77
2022/05/03 11:47:49;;;;;;;3.25;2.40;;;19.40;56.90;;;;;;4928225;29;20075;-77
2022/05/03 11:56:09;;;;;;;3.40;2.50;;;19.70;56.90;;;;;;4938452;29;20038;-76
2022/05/03 11:58:37;;;;;;;4.75;2.95;;;19.70;56.80;;;;;;4940787;29;20093;-77
2022/05/03 12:01:12;;;;;;;4.22;2.70;;;19.70;56.70;;;;;;4957693;28;20082;-77
2022/05/03 12:03:56;;;;;;;3.42;2.35;;;19.80;56.60;;;;;;4957694;28;20031;-76
2022/05/03 12:06:22;;;;;;;3.33;2.43;;;19.90;56.60;;;;;;4958435;28;20046;-78
2022/05/03 12:08:50;;;;;;;3.22;2.45;;;19.90;56.40;;;;;;4909009;29;20037;-78
2022/05/03 12:11:24;;;;;;;3.35;2.30;;;20.00;56.40;;;;;;4956180;29;20047;-78
2022/05/03 12:13:51;;;;;;;3.72;2.72;;;20.00;56.30;;;;;;4910514;29;20039;-78
2022/05/03 12:16:29;;;;;;;3.30;2.42;;;20.10;56.20;;;;;;4956170;29;20035;-78
2022/05/03 12:18:57;;;;;;;4.22;2.35;;;20.10;56.10;;;;;;4953490;29;20047;-79
2022/05/03 12:21:30;;;;;;;3.72;2.47;;;20.20;56.20;;;;;;4924911;29;20031;-78
2022/05/03 12:24:02;;;;;;;3.67;2.72;;;20.20;56.00;;;;;;4957029;29;20047;-78
2022/05/03 12:26:41;;;;;;;2.85;2.22;;;20.20;55.90;;;;;;4956075;29;20034;-81
2022/05/03 12:29:07;;;;;;;3.47;2.60;;;20.20;55.90;;;;;;4941023;29;20036;-78
2022/05/03 12:31:38;;;;;;;3.28;2.30;;;20.20;55.90;;;;;;4924551;29;20035;-79
2022/05/03 12:34:24;;;;;;;2.45;2.05;;;20.30;56.20;;;;;;4957103;29;20481;-79
2022/05/03 12:37:10;;;;;;;3.05;2.15;;;20.30;56.40;;;;;;4956262;29;20031;-78
2022/05/03 12:39:55;;;;;;;2.95;2.28;;;20.30;56.30;;;;;;4924450;29;20038;-77
2022/05/03 12:42:49;;;;;;;3.05;2.30;;;20.40;56.30;;;;;;4954982;29;20101;-78
2022/05/03 12:45:36;;;;;;;2.30;2.08;;;20.40;56.30;;;;;;4939867;29;20134;-79
2022/05/03 12:48:09;;;;;;;2.90;2.20;;;20.40;56.30;;;;;;4940466;29;20035;-77
2022/05/03 12:50:35;;;;;;;2.72;2.00;;;20.40;56.30;;;;;;4925002;29;20054;-77
2022/05/03 12:53:01;;;;;;;2.95;2.08;;;20.40;56.40;;;;;;4956726;29;20035;-76
2022/05/03 12:55:28;;;;;;;2.65;2.15;;;20.40;56.50;;;;;;4924851;29;20067;-77
2022/05/03 13:00:39;;;;;;;2.83;2.10;;;20.40;56.60;;;;;;4927520;29;20077;-77
2022/05/03 13:03:04;;;;;;;3.40;2.35;;;20.50;56.70;;;;;;4956152;29;20030;-77
2022/05/03 13:05:30;;;;;;;3.15;2.30;;;20.40;56.60;;;;;;4940339;29;20039;-78
2022/05/03 13:07:56;;;;;;;2.35;1.85;;;20.50;56.70;;;;;;4939589;29;20027;-77
2022/05/03 13:10:22;;;;;;;2.85;2.08;;;20.40;56.60;;;;;;4955705;29;20051;-78
2022/05/03 13:12:48;;;;;;;3.03;2.05;;;20.50;56.70;;;;;;4955684;29;20027;-77
2022/05/03 13:15:14;;;;;;;3.55;2.47;;;20.50;56.70;;;;;;4939699;29;20179;-78
2022/05/03 13:17:40;;;;;;;2.75;2.22;;;20.50;56.80;;;;;;4922757;29;20055;-79
2022/05/03 13:20:06;;;;;;;3.40;2.33;;;20.40;56.70;;;;;;4939551;29;20031;-78
2022/05/03 13:22:32;;;;;;;3.47;2.45;;;20.50;56.70;;;;;;4939359;29;20480;-78
2022/05/03 13:24:58;;;;;;;3.90;2.83;;;20.50;56.70;;;;;;4938963;29;20046;-78
2022/05/03 13:27:24;;;;;;;5.35;3.30;;;20.40;56.60;;;;;;4939432;29;20043;-78
2022/05/03 13:29:49;;;;;;;6.88;4.15;;;20.40;56.50;;;;;;4923432;29;20039;-77
2022/05/03 13:32:15;;;;;;;7.05;4.95;;;20.40;56.50;;;;;;4908400;29;20421;-77
2022/05/03 13:34:41;;;;;;;7.57;5.13;;;20.40;56.50;;;;;;4954867;29;20114;-77
2022/05/03 13:42:36;;;;;;;8.48;5.78;;;20.40;56.50;;;;;;4955125;29;20039;-78
2022/05/03 13:45:03;;;;;;;8.48;5.72;;;20.40;56.50;;;;;;4938979;29;20024;-77
2022/05/03 13:47:30;;;;;;;8.88;6.25;;;20.30;56.40;;;;;;4938884;29;20035;-77
2022/05/03 13:49:56;;;;;;;9.60;6.18;;;20.30;56.40;;;;;;4954974;29;20058;-76